Time;durP1;ratioP1;P1;durP2;ratioP2;P2;SDS_P1;SDS_P2;PMS_P1;PMS_P2;Temp;Humidity;BMP_temperature;BMP_pressure;BME280_temperature;BME280_humidity;BME280_pressure;Samples;Min_cycle;Max_cycle;Signal;HPM_P1;HPM_P2
2023/06/11 00:00:04;;;;;;;3.60;2.97;;;;;;;;;;5054642;28;20040;-77
2023/06/11 00:02:33;;;;;;;3.35;2.67;;;;;;;;;;5054548;28;20024;-77
2023/06/11 00:05:07;;;;;;;3.70;2.90;;;;;;;;;;5053320;28;20028;-77
2023/06/11 00:07:34;;;;;;;3.25;2.95;;;;;;;;;;5053483;28;20029;-77
2023/06/11 00:10:00;;;;;;;5.35;3.03;;;;;;;;;;5054503;28;20031;-78
2023/06/11 00:12:25;;;;;;;3.67;2.85;;;;;;;;;;5052913;28;20503;-77
2023/06/11 00:14:50;;;;;;;3.15;2.85;;;;;;;;;;5054640;28;20112;-77
2023/06/11 00:17:16;;;;;;;4.60;3.30;;;;;;;;;;5052927;28;20194;-78
2023/06/11 00:19:41;;;;;;;3.00;2.70;;;;;;;;;;5052928;28;20480;-78
2023/06/11 00:22:08;;;;;;;6.65;3.20;;;;;;;;;;5054199;28;20033;-77
2023/06/11 00:24:33;;;;;;;4.38;3.15;;;;;;;;;;5054280;28;20447;-78
2023/06/11 00:27:01;;;;;;;3.75;3.20;;;;;;;;;;5053107;28;20044;-78
2023/06/11 00:29:27;;;;;;;3.53;3.03;;;;;;;;;;5054181;28;20029;-78
2023/06/11 00:31:53;;;;;;;3.13;2.83;;;;;;;;;;5052575;28;20032;-78
2023/06/11 00:34:18;;;;;;;4.63;3.22;;;;;;;;;;5053992;28;20029;-78
2023/06/11 00:36:45;;;;;;;3.30;3.00;;;;;;;;;;5054374;28;20112;-78
2023/06/11 00:39:11;;;;;;;3.70;3.05;;;;;;;;;;5035750;28;20471;-78
2023/06/11 00:41:37;;;;;;;4.47;3.00;;;;;;;;;;5047814;28;20057;-78
2023/06/11 00:44:03;;;;;;;3.28;2.90;;;;;;;;;;5032883;28;20021;-78
2023/06/11 00:46:31;;;;;;;3.10;2.80;;;;;;;;;;5033906;28;20026;-77
2023/06/11 00:48:58;;;;;;;3.53;2.85;;;;;;;;;;5032527;28;20068;-77
2023/06/11 00:51:24;;;;;;;3.50;3.20;;;;;;;;;;5032366;28;20052;-77
2023/06/11 00:53:51;;;;;;;6.50;2.90;;;;;;;;;;5032352;28;20108;-77
2023/06/11 00:56:17;;;;;;;4.03;2.85;;;;;;;;;;5032556;28;20388;-78
2023/06/11 00:58:45;;;;;;;3.30;3.00;;;;;;;;;;5033657;28;20033;-77
2023/06/11 01:01:15;;;;;;;3.10;2.80;;;;;;;;;;5032236;28;20026;-78
2023/06/11 01:03:41;;;;;;;3.38;2.80;;;;;;;;;;5033330;28;20028;-78
2023/06/11 01:06:11;;;;;;;3.67;3.08;;;;;;;;;;5015666;28;20037;-78
2023/06/11 01:08:41;;;;;;;3.33;3.03;;;;;;;;;;5032324;28;20025;-78
2023/06/11 01:11:13;;;;;;;3.90;3.30;;;;;;;;;;5033710;28;20033;-78
2023/06/11 01:13:39;;;;;;;6.55;3.25;;;;;;;;;;5032149;28;20063;-78
2023/06/11 01:16:15;;;;;;;4.97;3.20;;;;;;;;;;5032134;28;20030;-78
2023/06/11 01:19:21;;;;;;;3.70;3.03;;;;;;;;;;5015468;28;20021;-78
2023/06/11 01:21:50;;;;;;;3.55;2.90;;;;;;;;;;5015675;28;20469;-78
2023/06/11 01:24:21;;;;;;;6.55;3.00;;;;;;;;;;5032479;28;20036;-78
2023/06/11 01:27:04;;;;;;;3.28;2.97;;;;;;;;;;5033298;28;20119;-78
2023/06/11 01:29:30;;;;;;;3.58;2.92;;;;;;;;;;5015430;28;20408;-77
2023/06/11 01:31:56;;;;;;;3.45;3.15;;;;;;;;;;5015290;28;20037;-77
2023/06/11 01:34:25;;;;;;;4.50;3.63;;;;;;;;;;5032946;28;20033;-77
2023/06/11 01:36:50;;;;;;;4.22;3.28;;;;;;;;;;5032140;28;20030;-77
2023/06/11 01:39:16;;;;;;;3.50;3.20;;;;;;;;;;5033279;28;20378;-78
2023/06/11 01:41:41;;;;;;;3.40;3.10;;;;;;;;;;5023682;28;20385;-78
2023/06/11 01:44:06;;;;;;;3.83;3.42;;;;;;;;;;5051717;28;20120;-78
2023/06/11 01:46:32;;;;;;;3.83;3.35;;;;;;;;;;5035040;28;20029;-77
2023/06/11 01:48:57;;;;;;;3.47;3.17;;;;;;;;;;5053059;28;20053;-77
2023/06/11 01:51:23;;;;;;;3.38;3.08;;;;;;;;;;5052792;28;20032;-77
2023/06/11 01:53:48;;;;;;;3.92;3.30;;;;;;;;;;5051540;28;20037;-77
2023/06/11 01:56:13;;;;;;;4.30;3.28;;;;;;;;;;5052979;28;20437;-77
2023/06/11 01:58:39;;;;;;;3.97;3.35;;;;;;;;;;5051840;28;20086;-78
2023/06/11 02:01:04;;;;;;;3.60;3.30;;;;;;;;;;5052993;28;20025;-78
2023/06/11 02:03:30;;;;;;;3.78;3.25;;;;;;;;;;5034775;28;20033;-78
2023/06/11 02:05:55;;;;;;;3.72;3.10;;;;;;;;;;5051407;28;20472;-78
2023/06/11 02:08:21;;;;;;;3.47;3.17;;;;;;;;;;5034785;28;20033;-78
2023/06/11 02:10:46;;;;;;;4.38;3.40;;;;;;;;;;5054064;28;20036;-78
2023/06/11 02:13:11;;;;;;;5.68;3.22;;;;;;;;;;5055264;28;20029;-78
2023/06/11 02:15:37;;;;;;;4.22;3.00;;;;;;;;;;5055190;28;20542;-78
2023/06/11 02:18:02;;;;;;;4.75;3.20;;;;;;;;;;5038508;28;20091;-78
2023/06/11 02:20:28;;;;;;;3.72;3.28;;;;;;;;;;5056483;28;20029;-78
2023/06/11 02:22:53;;;;;;;4.47;3.30;;;;;;;;;;5056459;28;20540;-78
2023/06/11 02:25:19;;;;;;;5.10;3.60;;;;;;;;;;5056311;28;20025;-78
2023/06/11 02:27:45;;;;;;;3.53;3.22;;;;;;;;;;5038249;28;20119;-78
2023/06/11 02:30:10;;;;;;;3.85;3.10;;;;;;;;;;5056506;28;20029;-79
2023/06/11 02:32:36;;;;;;;3.75;3.33;;;;;;;;;;5054854;28;20040;-79
2023/06/11 02:35:02;;;;;;;4.35;3.10;;;;;;;;;;5054694;28;20548;-78
2023/06/11 02:37:27;;;;;;;3.92;3.38;;;;;;;;;;5054874;28;20052;-79
2023/06/11 02:39:52;;;;;;;3.95;3.20;;;;;;;;;;5056015;28;20040;-78
2023/06/11 02:42:18;;;;;;;3.97;3.13;;;;;;;;;;5037756;28;20408;-78
2023/06/11 02:44:43;;;;;;;4.78;3.13;;;;;;;;;;5054738;28;20037;-78
2023/06/11 02:47:08;;;;;;;4.03;3.38;;;;;;;;;;5054557;28;20032;-78
2023/06/11 02:49:34;;;;;;;3.63;3.33;;;;;;;;;;5055839;28;20033;-78
2023/06/11 02:52:00;;;;;;;4.05;3.15;;;;;;;;;;5054674;28;20032;-78
2023/06/11 02:54:25;;;;;;;4.47;3.50;;;;;;;;;;5055891;28;20484;-77
2023/06/11 02:56:51;;;;;;;3.72;3.33;;;;;;;;;;5055720;28;20073;-78
2023/06/11 02:59:16;;;;;;;4.25;3.35;;;;;;;;;;5054520;28;20071;-78
2023/06/11 03:01:41;;;;;;;4.07;3.42;;;;;;;;;;5055828;28;20095;-79
2023/06/11 03:04:07;;;;;;;3.40;3.10;;;;;;;;;;5054554;28;20436;-78
2023/06/11 03:06:33;;;;;;;4.88;3.45;;;;;;;;;;5054526;28;20340;-78
2023/06/11 03:08:58;;;;;;;3.47;3.17;;;;;;;;;;5054125;28;20036;-78
2023/06/11 03:11:23;;;;;;;3.63;3.33;;;;;;;;;;5038257;28;20040;-78
2023/06/11 03:13:49;;;;;;;4.15;3.20;;;;;;;;;;5055482;28;20406;-78
2023/06/11 03:16:14;;;;;;;3.75;3.20;;;;;;;;;;5055256;28;20033;-78
2023/06/11 03:18:42;;;;;;;4.20;3.30;;;;;;;;;;5053859;28;20032;-78
2023/06/11 03:21:07;;;;;;;3.95;3.25;;;;;;;;;;5037498;28;20041;-78
2023/06/11 03:23:33;;;;;;;3.80;3.30;;;;;;;;;;5055193;28;20105;-78
2023/06/11 03:25:59;;;;;;;3.58;3.22;;;;;;;;;;5053559;28;20036;-79
2023/06/11 03:28:26;;;;;;;5.88;3.30;;;;;;;;;;5053626;28;20029;-78
2023/06/11 03:30:51;;;;;;;3.75;3.35;;;;;;;;;;5055245;28;20040;-79
2023/06/11 03:33:17;;;;;;;3.95;3.47;;;;;;;;;;5053773;28;20036;-76
2023/06/11 03:35:42;;;;;;;5.70;3.55;;;;;;;;;;5055356;28;20102;-78
2023/06/11 03:38:07;;;;;;;4.03;3.35;;;;;;;;;;5053763;28;20032;-79
2023/06/11 03:40:34;;;;;;;5.20;3.47;;;;;;;;;;5053987;28;20071;-78
2023/06/11 03:42:59;;;;;;;5.80;3.30;;;;;;;;;;5053520;28;20132;-78
2023/06/11 03:45:25;;;;;;;4.40;3.35;;;;;;;;;;5053448;28;20109;-78
2023/06/11 03:47:52;;;;;;;5.43;3.42;;;;;;;;;;5053629;28;20416;-78
2023/06/11 03:50:18;;;;;;;4.82;3.60;;;;;;;;;;5053397;28;20033;-78
2023/06/11 03:52:43;;;;;;;3.78;3.33;;;;;;;;;;5036726;28;20369;-78
2023/06/11 03:55:09;;;;;;;4.57;3.50;;;;;;;;;;5054427;28;20033;-78
2023/06/11 03:57:35;;;;;;;4.32;3.45;;;;;;;;;;5053309;28;20392;-78
2023/06/11 04:00:00;;;;;;;3.53;3.22;;;;;;;;;;5054499;28;20029;-78
2023/06/11 04:02:26;;;;;;;6.50;3.60;;;;;;;;;;5036612;28;20546;-78
2023/06/11 04:04:51;;;;;;;3.67;3.28;;;;;;;;;;5055113;28;20029;-78
2023/06/11 04:07:17;;;;;;;4.40;3.47;;;;;;;;;;5053900;28;20033;-78
2023/06/11 04:09:42;;;;;;;3.88;3.47;;;;;;;;;;5054715;28;20032;-77
2023/06/11 04:12:08;;;;;;;4.75;3.70;;;;;;;;;;5054905;28;20464;-78
2023/06/11 04:14:33;;;;;;;4.10;3.53;;;;;;;;;;5053267;28;20070;-79
2023/06/11 04:16:58;;;;;;;5.07;3.58;;;;;;;;;;5020290;28;20450;-77
2023/06/11 04:19:24;;;;;;;4.65;3.45;;;;;;;;;;5054782;28;20035;-78
2023/06/11 04:21:49;;;;;;;5.13;3.90;;;;;;;;;;5053219;28;20044;-78
2023/06/11 04:24:15;;;;;;;5.35;3.42;;;;;;;;;;5036650;28;20137;-78
2023/06/11 04:26:40;;;;;;;4.28;3.33;;;;;;;;;;5053624;28;20082;-78
2023/06/11 04:29:08;;;;;;;3.72;3.38;;;;;;;;;;5053722;28;20433;-78
2023/06/11 04:31:33;;;;;;;4.95;3.45;;;;;;;;;;5053119;28;20028;-78
2023/06/11 04:34:06;;;;;;;4.28;3.60;;;;;;;;;;5054192;28;20040;-78
2023/06/11 04:36:32;;;;;;;5.10;3.60;;;;;;;;;;5053672;28;20442;-77
2023/06/11 04:39:01;;;;;;;3.72;3.30;;;;;;;;;;5036247;28;20045;-78
2023/06/11 04:41:29;;;;;;;4.10;3.38;;;;;;;;;;5036963;28;20037;-78
2023/06/11 04:43:55;;;;;;;3.50;3.20;;;;;;;;;;5053137;28;20044;-78
2023/06/11 04:46:21;;;;;;;3.55;3.25;;;;;;;;;;5054555;28;20036;-78
2023/06/11 04:48:50;;;;;;;3.88;3.58;;;;;;;;;;5052783;28;20055;-77
2023/06/11 04:51:16;;;;;;;4.65;3.70;;;;;;;;;;5036525;28;20028;-77
2023/06/11 04:53:43;;;;;;;4.13;3.63;;;;;;;;;;5053876;28;20035;-77
2023/06/11 04:56:08;;;;;;;3.47;3.17;;;;;;;;;;5036065;28;20025;-78
2023/06/11 04:58:34;;;;;;;4.22;3.05;;;;;;;;;;5053871;28;20033;-77
2023/06/11 05:00:59;;;;;;;4.38;3.42;;;;;;;;;;5053819;28;20029;-78
2023/06/11 05:03:26;;;;;;;5.78;3.88;;;;;;;;;;5052456;28;20083;-77
2023/06/11 05:05:53;;;;;;;4.70;3.63;;;;;;;;;;5035977;28;20024;-77
2023/06/11 05:08:20;;;;;;;5.13;3.53;;;;;;;;;;5052591;28;20029;-78
2023/06/11 05:10:45;;;;;;;3.97;3.58;;;;;;;;;;5052405;28;20024;-77
2023/06/11 05:13:11;;;;;;;4.38;3.33;;;;;;;;;;5053823;28;20086;-78
2023/06/11 05:15:37;;;;;;;3.95;3.63;;;;;;;;;;5035620;28;20392;-79
2023/06/11 05:18:03;;;;;;;4.10;3.33;;;;;;;;;;5068951;28;20025;-79
2023/06/11 05:20:28;;;;;;;5.18;3.53;;;;;;;;;;5052333;28;20062;-78
2023/06/11 05:22:58;;;;;;;4.90;3.42;;;;;;;;;;5052183;28;20459;-79
2023/06/11 05:25:27;;;;;;;5.25;3.83;;;;;;;;;;5052589;28;20029;-78
2023/06/11 05:27:54;;;;;;;4.28;3.70;;;;;;;;;;5052101;28;20384;-78
2023/06/11 05:30:24;;;;;;;5.40;3.95;;;;;;;;;;5052237;28;20392;-78
2023/06/11 05:32:50;;;;;;;4.10;3.60;;;;;;;;;;5035937;28;20033;-78
2023/06/11 05:35:15;;;;;;;6.07;3.60;;;;;;;;;;5051916;28;20040;-77
2023/06/11 05:37:41;;;;;;;6.35;3.60;;;;;;;;;;5053297;28;20033;-77
2023/06/11 05:40:07;;;;;;;7.82;4.18;;;;;;;;;;5052374;28;20048;-77
2023/06/11 05:42:33;;;;;;;6.97;4.38;;;;;;;;;;5052439;28;20053;-78
2023/06/11 05:44:58;;;;;;;5.70;3.80;;;;;;;;;;5035702;28;20051;-77
2023/06/11 05:47:23;;;;;;;6.32;4.40;;;;;;;;;;5055769;28;20040;-77
2023/06/11 05:49:49;;;;;;;6.47;3.92;;;;;;;;;;5056412;28;20418;-77
2023/06/11 05:52:14;;;;;;;7.18;4.05;;;;;;;;;;5056115;28;20103;-77
2023/06/11 05:54:40;;;;;;;13.90;4.32;;;;;;;;;;5056321;28;20387;-77
2023/06/11 05:57:08;;;;;;;7.53;4.03;;;;;;;;;;5056100;28;20025;-78
2023/06/11 05:59:33;;;;;;;7.18;4.05;;;;;;;;;;5057423;28;20431;-77
2023/06/11 06:01:58;;;;;;;7.75;4.25;;;;;;;;;;5055876;28;20085;-78
2023/06/11 06:04:24;;;;;;;8.50;3.90;;;;;;;;;;5039473;28;20025;-78
2023/06/11 06:06:50;;;;;;;9.85;4.30;;;;;;;;;;5056157;28;20032;-77
2023/06/11 06:09:15;;;;;;;5.13;3.90;;;;;;;;;;5055766;28;20403;-78
2023/06/11 06:11:41;;;;;;;6.88;4.72;;;;;;;;;;5056120;28;20060;-77
2023/06/11 06:14:06;;;;;;;7.95;3.83;;;;;;;;;;5056309;28;20043;-77
2023/06/11 06:16:32;;;;;;;6.00;3.83;;;;;;;;;;5055754;28;20033;-78
2023/06/11 06:18:57;;;;;;;6.43;3.65;;;;;;;;;;5057214;28;20535;-77
2023/06/11 06:21:22;;;;;;;7.78;3.78;;;;;;;;;;5056797;28;20029;-77
2023/06/11 06:23:48;;;;;;;7.00;3.97;;;;;;;;;;5055872;28;20033;-77
2023/06/11 06:26:13;;;;;;;5.90;3.60;;;;;;;;;;5056748;28;20035;-77
2023/06/11 06:28:38;;;;;;;7.97;4.10;;;;;;;;;;5055202;28;20095;-78
2023/06/11 06:31:07;;;;;;;5.93;3.67;;;;;;;;;;5038806;28;20033;-77
2023/06/11 06:33:36;;;;;;;7.53;4.00;;;;;;;;;;5038982;28;20025;-78
2023/06/11 06:36:03;;;;;;;16.25;4.57;;;;;;;;;;5055265;28;20113;-78
2023/06/11 06:38:28;;;;;;;5.22;3.70;;;;;;;;;;5055495;28;20025;-78
2023/06/11 06:40:53;;;;;;;6.10;3.40;;;;;;;;;;5055447;28;20031;-78
2023/06/11 06:43:19;;;;;;;4.68;3.75;;;;;;;;;;5056436;28;20140;-77
2023/06/11 06:45:44;;;;;;;5.15;3.58;;;;;;;;;;5038837;28;20073;-77
2023/06/11 06:48:10;;;;;;;5.03;3.70;;;;;;;;;;5056149;28;20041;-78
2023/06/11 06:50:35;;;;;;;4.97;3.40;;;;;;;;;;5056451;28;20039;-77
2023/06/11 06:53:00;;;;;;;4.97;3.67;;;;;;;;;;5038421;28;20037;-77
2023/06/11 06:55:26;;;;;;;6.97;4.03;;;;;;;;;;5021625;28;20040;-78
2023/06/11 06:57:51;;;;;;;4.95;3.70;;;;;;;;;;5055680;28;20035;-78
2023/06/11 07:00:17;;;;;;;4.78;3.30;;;;;;;;;;5038522;28;20037;-78
2023/06/11 07:02:42;;;;;;;5.28;3.85;;;;;;;;;;5038829;28;20132;-79
2023/06/11 07:05:08;;;;;;;4.78;3.50;;;;;;;;;;5055822;28;20523;-78
2023/06/11 07:07:33;;;;;;;4.95;3.60;;;;;;;;;;5056086;28;20029;-78
2023/06/11 07:09:59;;;;;;;6.90;3.67;;;;;;;;;;5038549;28;20067;-77
2023/06/11 07:12:24;;;;;;;6.40;3.75;;;;;;;;;;5037884;28;20124;-78
2023/06/11 07:14:50;;;;;;;4.60;3.72;;;;;;;;;;5038154;28;20029;-77
2023/06/11 07:17:15;;;;;;;6.55;3.60;;;;;;;;;;5055681;28;20037;-78
2023/06/11 07:19:41;;;;;;;5.40;3.90;;;;;;;;;;5038121;28;20036;-78
2023/06/11 07:22:06;;;;;;;6.38;3.90;;;;;;;;;;5055768;28;20033;-78
2023/06/11 07:24:31;;;;;;;7.05;3.67;;;;;;;;;;5055894;28;20357;-78
2023/06/11 07:26:57;;;;;;;10.40;4.00;;;;;;;;;;5021034;28;20029;-77
2023/06/11 07:29:24;;;;;;;6.20;4.00;;;;;;;;;;5037654;28;20128;-78
2023/06/11 07:31:49;;;;;;;6.60;4.05;;;;;;;;;;5037478;28;20029;-78
2023/06/11 07:34:15;;;;;;;9.10;4.28;;;;;;;;;;5037565;28;20029;-78
2023/06/11 07:36:41;;;;;;;10.02;3.88;;;;;;;;;;5055639;28;20086;-78
2023/06/11 07:39:06;;;;;;;6.03;3.60;;;;;;;;;;5037780;28;20033;-77
2023/06/11 07:41:32;;;;;;;9.70;3.83;;;;;;;;;;5056042;28;20111;-77
2023/06/11 07:43:58;;;;;;;7.20;3.72;;;;;;;;;;5037505;28;20033;-77
2023/06/11 07:46:23;;;;;;;10.88;4.10;;;;;;;;;;5055170;28;20107;-77
2023/06/11 07:48:48;;;;;;;7.68;3.83;;;;;;;;;;5037608;28;20104;-77
2023/06/11 07:51:14;;;;;;;7.90;4.13;;;;;;;;;;5037231;28;20087;-77
2023/06/11 07:53:40;;;;;;;7.25;3.83;;;;;;;;;;5037381;28;20029;-77
2023/06/11 07:56:06;;;;;;;7.38;3.72;;;;;;;;;;5037239;28;20506;-76
2023/06/11 07:58:31;;;;;;;9.15;4.05;;;;;;;;;;5055232;28;20040;-77
2023/06/11 08:00:57;;;;;;;6.50;4.20;;;;;;;;;;5037535;28;20028;-78
2023/06/11 08:03:22;;;;;;;6.53;4.40;;;;;;;;;;5030281;28;20614;-77
2023/06/11 08:05:47;;;;;;;11.98;4.80;;;;;;;;;;5023362;28;20119;-77
2023/06/11 08:08:13;;;;;;;13.38;4.95;;;;;;;;;;5055730;28;20033;-77
2023/06/11 08:10:38;;;;;;;9.93;4.95;;;;;;;;;;5074383;28;20395;-77
2023/06/11 08:13:04;;;;;;;12.93;5.70;;;;;;;;;;5039690;28;20032;-77
2023/06/11 08:15:30;;;;;;;13.55;5.50;;;;;;;;;;5056224;28;20099;-76
2023/06/11 08:17:56;;;;;;;10.60;5.38;;;;;;;;;;5056209;28;20035;-77
2023/06/11 08:20:21;;;;;;;18.40;5.05;;;;;;;;;;5073988;28;20024;-77
2023/06/11 08:22:46;;;;;;;76.72;17.05;;;;;;;;;;5039780;28;20412;-77
2023/06/11 08:25:12;;;;;;;57.10;17.58;;;;;;;;;;5039576;28;20035;-77
2023/06/11 08:27:37;;;;;;;71.82;19.25;;;;;;;;;;5072563;28;20040;-78
2023/06/11 08:30:03;;;;;;;57.42;15.43;;;;;;;;;;5072557;28;20036;-77
2023/06/11 08:32:28;;;;;;;46.38;15.98;;;;;;;;;;5055842;28;20025;-77
2023/06/11 08:34:54;;;;;;;50.40;15.00;;;;;;;;;;5039240;28;20039;-77
2023/06/11 08:37:20;;;;;;;46.30;14.68;;;;;;;;;;5055751;28;20039;-77
2023/06/11 08:39:45;;;;;;;47.28;15.02;;;;;;;;;;5055745;28;20348;-77
2023/06/11 08:42:11;;;;;;;34.60;13.10;;;;;;;;;;5073353;28;20052;-78
2023/06/11 08:44:37;;;;;;;37.97;13.85;;;;;;;;;;5073584;28;20025;-77
2023/06/11 08:47:03;;;;;;;39.72;13.82;;;;;;;;;;5073686;28;20131;-77
2023/06/11 08:49:30;;;;;;;41.70;13.82;;;;;;;;;;5054190;28;20023;-77
2023/06/11 08:51:58;;;;;;;39.78;13.00;;;;;;;;;;5056285;28;20028;-78
2023/06/11 08:54:23;;;;;;;36.72;12.88;;;;;;;;;;5056145;28;20021;-77
2023/06/11 08:56:49;;;;;;;36.08;12.63;;;;;;;;;;5040928;28;20060;-77
2023/06/11 08:59:16;;;;;;;40.15;13.10;;;;;;;;;;5039185;28;20457;-77
2023/06/11 09:01:41;;;;;;;25.00;10.55;;;;;;;;;;5072119;28;20029;-78
2023/06/11 09:04:07;;;;;;;30.60;10.88;;;;;;;;;;5072388;28;20044;-77
2023/06/11 09:06:34;;;;;;;27.90;10.75;;;;;;;;;;5073427;28;20112;-77
2023/06/11 09:09:07;;;;;;;33.05;11.20;;;;;;;;;;5055377;28;20467;-77
2023/06/11 09:11:37;;;;;;;33.83;11.43;;;;;;;;;;5055942;28;20029;-77
2023/06/11 09:14:04;;;;;;;22.90;9.52;;;;;;;;;;5055140;28;20043;-77
2023/06/11 09:16:41;;;;;;;24.63;10.07;;;;;;;;;;5055170;28;20028;-78
2023/06/11 09:19:08;;;;;;;24.15;9.93;;;;;;;;;;5071200;28;20032;-77
2023/06/11 09:21:36;;;;;;;25.92;9.95;;;;;;;;;;5054906;28;20035;-77
2023/06/11 09:24:08;;;;;;;25.70;9.35;;;;;;;;;;5055744;28;20491;-77
2023/06/11 09:26:34;;;;;;;23.17;9.35;;;;;;;;;;5054790;28;20384;-78
2023/06/11 09:29:00;;;;;;;21.73;8.90;;;;;;;;;;5055144;28;20054;-77
2023/06/11 09:31:25;;;;;;;26.42;8.65;;;;;;;;;;5055426;28;20024;-77
2023/06/11 09:33:52;;;;;;;19.40;8.82;;;;;;;;;;5054926;28;20100;-77
2023/06/11 09:36:18;;;;;;;21.48;8.57;;;;;;;;;;5038209;28;20079;-77
2023/06/11 09:38:46;;;;;;;23.20;9.00;;;;;;;;;;5072903;28;20162;-77
2023/06/11 09:41:12;;;;;;;23.30;9.20;;;;;;;;;;5055021;28;20028;-77
2023/06/11 09:43:39;;;;;;;19.08;8.45;;;;;;;;;;5051602;28;20053;-77
2023/06/11 09:46:05;;;;;;;19.98;7.60;;;;;;;;;;5051896;28;20032;-78
2023/06/11 09:48:31;;;;;;;12.43;7.05;;;;;;;;;;5052263;28;20033;-77
2023/06/11 09:51:00;;;;;;;15.13;7.05;;;;;;;;;;5052080;28;20033;-78
2023/06/11 09:53:26;;;;;;;14.05;6.72;;;;;;;;;;5052008;28;20108;-77
2023/06/11 09:55:51;;;;;;;11.00;6.15;;;;;;;;;;5051929;28;20105;-77
2023/06/11 09:58:17;;;;;;;11.00;5.82;;;;;;;;;;5052979;28;20232;-77
2023/06/11 10:00:46;;;;;;;10.75;6.18;;;;;;;;;;5051715;28;20047;-77
2023/06/11 10:03:12;;;;;;;12.77;6.32;;;;;;;;;;5051530;28;20017;-77
2023/06/11 10:05:37;;;;;;;18.83;6.53;;;;;;;;;;5051191;28;20036;-77
2023/06/11 10:08:08;;;;;;;12.80;5.97;;;;;;;;;;5051736;28;20033;-77
2023/06/11 10:10:39;;;;;;;12.85;5.53;;;;;;;;;;5034704;28;20464;-77
2023/06/11 10:13:05;;;;;;;12.63;5.20;;;;;;;;;;5051816;28;20066;-77
2023/06/11 10:15:32;;;;;;;11.85;5.38;;;;;;;;;;5053762;28;20025;-77
2023/06/11 10:17:57;;;;;;;7.65;4.40;;;;;;;;;;5052903;28;20029;-76
2023/06/11 10:20:27;;;;;;;10.35;4.93;;;;;;;;;;5052437;28;20032;-77
2023/06/11 10:23:09;;;;;;;10.02;5.10;;;;;;;;;;5053125;28;20025;-77
2023/06/11 10:25:41;;;;;;;6.97;4.53;;;;;;;;;;5052696;28;20107;-77
2023/06/11 10:28:08;;;;;;;12.77;4.28;;;;;;;;;;5051816;28;20032;-77
2023/06/11 10:30:34;;;;;;;10.48;4.32;;;;;;;;;;5051242;28;20112;-78
2023/06/11 10:32:59;;;;;;;12.38;4.78;;;;;;;;;;5037155;28;20123;-78
2023/06/11 10:35:30;;;;;;;7.82;5.07;;;;;;;;;;5038579;28;20494;-77
2023/06/11 10:38:07;;;;;;;9.15;5.10;;;;;;;;;;5056507;28;20051;-78
2023/06/11 10:40:34;;;;;;;12.98;5.60;;;;;;;;;;5038936;28;20154;-78
2023/06/11 10:43:00;;;;;;;16.42;6.13;;;;;;;;;;5054795;28;20041;-77
2023/06/11 10:45:34;;;;;;;9.63;5.43;;;;;;;;;;5054584;28;20506;-77
2023/06/11 10:48:00;;;;;;;9.93;5.55;;;;;;;;;;5054664;28;20449;-78
2023/06/11 10:50:31;;;;;;;14.80;6.93;;;;;;;;;;5054455;28;20151;-77
2023/06/11 10:53:02;;;;;;;14.38;6.20;;;;;;;;;;5036216;28;20135;-77
2023/06/11 10:55:30;;;;;;;18.83;7.95;;;;;;;;;;5055608;28;20542;-77
2023/06/11 10:57:57;;;;;;;12.50;6.22;;;;;;;;;;5054426;28;20390;-77
2023/06/11 11:00:22;;;;;;;10.70;6.38;;;;;;;;;;5054361;28;20468;-77
2023/06/11 11:02:49;;;;;;;12.88;6.13;;;;;;;;;;5037544;28;20063;-76
2023/06/11 11:05:14;;;;;;;10.50;6.60;;;;;;;;;;5054276;28;20416;-78
2023/06/11 11:07:44;;;;;;;10.18;6.20;;;;;;;;;;5054336;28;20064;-77
2023/06/11 11:10:11;;;;;;;9.15;6.05;;;;;;;;;;5037493;28;20032;-77
2023/06/11 11:12:45;;;;;;;11.15;6.18;;;;;;;;;;5021149;28;20088;-77
2023/06/11 11:15:14;;;;;;;8.77;5.88;;;;;;;;;;5053958;28;20480;-78
2023/06/11 11:17:40;;;;;;;11.95;6.45;;;;;;;;;;5054036;28;20040;-77
2023/06/11 11:20:10;;;;;;;13.93;5.95;;;;;;;;;;5037254;28;20017;-77
2023/06/11 11:22:36;;;;;;;9.40;5.90;;;;;;;;;;5037555;28;20472;-77
2023/06/11 11:25:06;;;;;;;11.50;5.82;;;;;;;;;;5054174;28;20059;-77
2023/06/11 11:27:33;;;;;;;13.23;6.40;;;;;;;;;;5052160;28;20108;-77
2023/06/11 11:30:01;;;;;;;8.93;5.22;;;;;;;;;;5060560;28;20391;-77
2023/06/11 11:32:28;;;;;;;7.65;5.25;;;;;;;;;;5058487;28;20020;-76
2023/06/11 11:34:56;;;;;;;10.80;5.53;;;;;;;;;;5074385;28;20073;-77
2023/06/11 11:37:22;;;;;;;15.40;5.30;;;;;;;;;;5073827;28;20113;-76
2023/06/11 11:39:48;;;;;;;12.40;5.20;;;;;;;;;;5074004;28;20095;-76
2023/06/11 11:42:14;;;;;;;8.32;5.10;;;;;;;;;;5073419;28;20052;-76
2023/06/11 11:44:41;;;;;;;11.52;4.97;;;;;;;;;;5073706;28;20495;-77
2023/06/11 11:47:14;;;;;;;7.35;4.88;;;;;;;;;;5074835;28;20036;-77
2023/06/11 11:49:40;;;;;;;9.82;5.18;;;;;;;;;;5057133;28;20024;-76
2023/06/11 11:52:06;;;;;;;8.45;5.50;;;;;;;;;;5073831;28;20054;-77
2023/06/11 11:54:32;;;;;;;7.00;4.82;;;;;;;;;;5034717;28;20038;-77
2023/06/11 11:57:07;;;;;;;9.07;4.97;;;;;;;;;;5017196;28;20562;-77
2023/06/11 11:59:41;;;;;;;7.22;4.85;;;;;;;;;;5036808;28;20108;-77
2023/06/11 12:02:07;;;;;;;8.05;4.78;;;;;;;;;;5054342;28;20029;-77
2023/06/11 12:04:38;;;;;;;7.05;4.70;;;;;;;;;;5054681;28;20021;-76
2023/06/11 12:07:13;;;;;;;7.40;4.47;;;;;;;;;;5036738;28;20111;-77
2023/06/11 12:09:39;;;;;;;7.78;4.90;;;;;;;;;;5053249;28;20083;-77
2023/06/11 12:12:05;;;;;;;8.00;4.47;;;;;;;;;;5053127;28;20392;-77
2023/06/11 12:14:31;;;;;;;5.55;4.35;;;;;;;;;;5054444;28;20033;-76
2023/06/11 12:16:57;;;;;;;6.43;4.55;;;;;;;;;;5053687;28;20087;-76
2023/06/11 12:19:22;;;;;;;7.28;4.70;;;;;;;;;;5054271;28;20043;-77
2023/06/11 12:21:47;;;;;;;7.88;4.78;;;;;;;;;;5053240;28;20032;-76
2023/06/11 12:24:17;;;;;;;8.10;4.60;;;;;;;;;;5054334;28;20086;-77
2023/06/11 12:26:46;;;;;;;6.13;4.38;;;;;;;;;;5054006;28;20094;-77
2023/06/11 12:29:12;;;;;;;6.55;4.75;;;;;;;;;;5053739;28;20154;-77
2023/06/11 12:31:38;;;;;;;31.33;5.13;;;;;;;;;;5054413;28;20495;-77
2023/06/11 12:34:04;;;;;;;10.85;4.75;;;;;;;;;;5053221;28;20036;-77
2023/06/11 12:36:30;;;;;;;9.63;5.55;;;;;;;;;;5054160;28;20041;-77
2023/06/11 12:38:55;;;;;;;11.68;5.78;;;;;;;;;;5036351;28;20029;-77
2023/06/11 12:41:20;;;;;;;12.55;6.00;;;;;;;;;;5053058;28;20048;-77
2023/06/11 12:43:46;;;;;;;12.82;5.97;;;;;;;;;;5072887;28;20539;-78
2023/06/11 12:46:11;;;;;;;12.45;5.85;;;;;;;;;;5074600;28;20049;-76
2023/06/11 12:48:37;;;;;;;11.70;6.22;;;;;;;;;;5074312;28;20594;-77
2023/06/11 12:51:02;;;;;;;16.50;6.03;;;;;;;;;;5039553;28;20066;-76
2023/06/11 12:53:29;;;;;;;8.68;5.60;;;;;;;;;;5073981;28;20056;-76
2023/06/11 12:55:55;;;;;;;12.98;6.28;;;;;;;;;;5073801;28;20540;-76
2023/06/11 12:58:20;;;;;;;10.90;5.38;;;;;;;;;;5073747;28;20064;-76
2023/06/11 13:00:46;;;;;;;13.30;5.80;;;;;;;;;;5056497;28;20024;-76
2023/06/11 13:03:11;;;;;;;14.07;6.60;;;;;;;;;;5056197;28;20043;-77
2023/06/11 13:05:36;;;;;;;11.25;5.75;;;;;;;;;;5073779;28;20029;-76
2023/06/11 13:08:02;;;;;;;11.68;5.75;;;;;;;;;;5073901;28;20070;-76
2023/06/11 13:10:27;;;;;;;11.73;6.20;;;;;;;;;;5055824;28;20368;-76
2023/06/11 13:12:55;;;;;;;9.23;5.32;;;;;;;;;;5055738;28;20039;-78
2023/06/11 13:15:20;;;;;;;8.43;4.78;;;;;;;;;;5039151;28;20024;-76
2023/06/11 13:17:45;;;;;;;6.70;4.82;;;;;;;;;;5055725;28;20031;-76
2023/06/11 13:20:11;;;;;;;8.63;4.78;;;;;;;;;;5073696;28;20395;-77
2023/06/11 13:22:37;;;;;;;11.70;4.85;;;;;;;;;;5055579;28;20032;-76
2023/06/11 13:25:03;;;;;;;9.20;4.38;;;;;;;;;;5038967;28;20020;-77
2023/06/11 13:27:28;;;;;;;8.45;4.93;;;;;;;;;;5055654;28;20024;-78
2023/06/11 13:29:55;;;;;;;7.70;4.88;;;;;;;;;;5055469;28;20039;-77
2023/06/11 13:32:20;;;;;;;9.25;4.65;;;;;;;;;;5055671;28;20039;-77
2023/06/11 13:34:45;;;;;;;7.95;4.35;;;;;;;;;;5055211;28;20115;-77
2023/06/11 13:37:11;;;;;;;6.32;4.13;;;;;;;;;;5038820;28;20090;-77
2023/06/11 13:39:36;;;;;;;7.30;3.97;;;;;;;;;;5038793;28;20032;-76
2023/06/11 13:42:02;;;;;;;6.38;4.10;;;;;;;;;;5055467;28;20048;-77
2023/06/11 13:44:27;;;;;;;7.55;4.80;;;;;;;;;;5073234;28;20036;-77
2023/06/11 13:46:53;;;;;;;8.32;4.50;;;;;;;;;;5073436;28;20037;-77
2023/06/11 13:49:18;;;;;;;5.60;3.88;;;;;;;;;;5055452;28;20475;-77
2023/06/11 13:51:44;;;;;;;6.53;4.22;;;;;;;;;;5055491;28;20111;-76
2023/06/11 13:54:09;;;;;;;5.70;3.70;;;;;;;;;;5038510;28;20024;-76
2023/06/11 13:56:35;;;;;;;5.05;3.60;;;;;;;;;;5055159;28;20479;-76
2023/06/11 13:59:00;;;;;;;4.65;3.75;;;;;;;;;;5073132;28;20025;-76
2023/06/11 14:01:25;;;;;;;5.43;3.88;;;;;;;;;;5055154;28;20480;-76
2023/06/11 14:03:51;;;;;;;5.75;3.75;;;;;;;;;;5055001;28;20032;-76
2023/06/11 14:06:17;;;;;;;5.03;3.63;;;;;;;;;;5055591;28;20025;-76
2023/06/11 14:08:44;;;;;;;4.60;3.47;;;;;;;;;;5042580;28;20028;-76
2023/06/11 14:11:13;;;;;;;5.63;3.83;;;;;;;;;;5059191;28;20037;-76
2023/06/11 14:13:39;;;;;;;4.28;3.13;;;;;;;;;;5059796;28;20082;-76
2023/06/11 14:16:05;;;;;;;4.47;3.63;;;;;;;;;;5077120;28;20029;-76
2023/06/11 14:18:30;;;;;;;4.18;3.28;;;;;;;;;;5076863;28;20039;-76
2023/06/11 14:20:57;;;;;;;4.65;3.40;;;;;;;;;;5076786;28;20075;-76
2023/06/11 14:23:22;;;;;;;5.35;3.45;;;;;;;;;;5076686;28;20055;-76
2023/06/11 14:25:48;;;;;;;3.70;3.10;;;;;;;;;;5076790;28;20514;-76
2023/06/11 14:28:13;;;;;;;4.70;3.72;;;;;;;;;;5059245;28;20036;-76
2023/06/11 14:30:38;;;;;;;3.72;3.42;;;;;;;;;;5076905;28;20029;-76
2023/06/11 14:33:04;;;;;;;4.20;3.20;;;;;;;;;;5058804;28;20489;-76